• Join FlightAware (Why Join?)
  • Login
  • US Flag 
07:48PM EDT


 

Airport Tracker/Info


-or-


 

Live Flight TrackerFlight Track Log ✈ AAL1459 ✈ 09-Apr-2013 ✈ KORD - KRNO

Flight Track Log - Related Links

Times and Time Zones

All times are in EDT time to prevent confusion due to time zone crossing. See the AAL1459 flight status page for this flight to view local times or setup timezone preferences in your user account.

Time Position Orientation Groundspeed Altitude Reporting Facility
EDT Latitude Longitude Course Direction KTS MPH feet Rate Location/Type
07:43PM 42.0333 -87.9667 270° West 182 209 3,100  Level Chicago TRACON
07:44PM 42.0833 -88.0167 323° Northwest 267 307 5,000 2,460 Climbing Chicago TRACON
07:45PM 41.9667 -88.3610 270° West  Level FlightAware Approximate
07:45PM 42.1267 -88.0667 319° Northwest 264 304 7,500  Level Chicago Center
07:46PM 41.9667 -88.5147 270° West  Level FlightAware Approximate
07:46PM 42.1297 -88.1658 272° West 280 322 10,500  Level Chicago Center
07:47PM 41.9668 -88.6684 270° West  Level FlightAware Approximate
07:47PM 42.1217 -88.2739 264° West 294 338 12,100  Level Chicago Center
07:48PM 41.9668 -88.8221 270° West  Level FlightAware Approximate
07:48PM 42.1128 -88.4228 265° West 327 376 15,600  Level Chicago Center
07:49PM 42.1033 -88.5531 264° West 344 396 19,000 2,820 Climbing Chicago Center
07:50PM 42.0975 -88.6861 267° West 355 409 21,500 2,340 Climbing Chicago Center
07:51PM 42.0886 -88.8408 266° West 369 425 23,800 2,100 Climbing Chicago Center
07:52PM 42.0817 -88.9875 266° West 387 445 25,900 1,980 Climbing Chicago Center
07:53PM 42.0764 -89.1378 267° West 398 458 27,900 1,920 Climbing Chicago Center
07:54PM 42.0714 -89.2911 268° West 407 468 29,900 1,980 Climbing Chicago Center
07:55PM 42.0664 -89.4458 268° West 398 458 32,000 960 Climbing Chicago Center
07:56PM 42.0653 -89.5919 269° West 394 453 32,000  Level Chicago Center
07:57PM 42.0628 -89.7392 269° West 396 456 32,000 60 Level Chicago Center
07:58PM 42.0608 -89.8858 269° West 396 456 32,200 900 Climbing Chicago Center
07:59PM 42.0614 -90.0506 270° West 400 460 33,900 1,560 Climbing Chicago Center
08:00PM 42.0619 -90.1972 270° West 396 456 35,500 1,560 Climbing Chicago Center
08:01PM 42.0633 -90.3425 271° West 390 449 37,100 1,200 Climbing Chicago Center
08:02PM 42.0639 -90.4833 270° West 380 437 38,000 420 Climbing Chicago Center
08:04PM 42.0650 -90.6556 271° West 385 443 38,000  Level Chicago Center
08:05PM 42.0664 -90.7964 271° West 379 436 38,000  Level Chicago Center
08:06PM 42.0769 -90.9386 276° West 385 443 38,000  Level Chicago Center
08:07PM 42.1053 -91.0769 285° West 386 444 38,000  Level Chicago Center
08:08PM 42.1328 -91.2153 285° West 384 442 38,000  Level Chicago Center
08:09PM 42.1586 -91.3517 284° West 379 436 38,000  Level Chicago Center
08:10PM 42.1861 -91.4897 285° West 380 437 38,000  Level Chicago Center
08:11PM 42.2183 -91.6542 285° West 379 436 38,000  Level Chicago Center
08:12PM 42.2439 -91.7928 284° West 381 438 38,000  Level Chicago Center
08:13PM 42.2697 -91.9322 284° West 384 442 38,000  Level Chicago Center
08:14PM 42.2964 -92.0708 285° West 382 440 38,000  Level Chicago Center
08:14PM 42.3058 -92.1283 283° West 383 441 38,000  Level Minneapolis Center
08:15PM 42.3314 -92.2661 284° West 380 437 38,000  Level Minneapolis Center
08:16PM 42.3544 -92.4044 283° West 379 436 38,000  Level Minneapolis Center
08:17PM 42.3533 -92.5422 269° West 371 427 38,000  Level Minneapolis Center
08:18PM 42.3569 -92.7092 272° West 371 427 38,000  Level Minneapolis Center
08:19PM 42.3586 -92.8436 271° West 365 420 38,000  Level Minneapolis Center
08:20PM 42.3594 -92.9828 271° West 368 423 38,000  Level Minneapolis Center
08:21PM 42.3597 -93.1225 270° West 373 429 38,000  Level Minneapolis Center
08:22PM 42.3622 -93.2619 271° West 373 429 38,000  Level Minneapolis Center
08:23PM 42.3619 -93.4011 270° West 373 429 38,000  Level Minneapolis Center
08:24PM 42.3636 -93.5419 271° West 375 432 38,100 540 Climbing Minneapolis Center
08:25PM 42.3636 -93.7122 270° West 379 436 39,200 900 Climbing Minneapolis Center
08:27PM 42.3622 -93.8539 269° West 378 435 40,000 360 Climbing Minneapolis Center
08:28PM 42.3603 -93.9911 269° West 370 426 40,000  Level Minneapolis Center
08:29PM 42.3789 -94.1281 280° West 377 434 40,000  Level Minneapolis Center
08:30PM 42.4114 -94.2608 288° West 377 434 40,000  Level Minneapolis Center
08:31PM 42.4453 -94.3875 290° West 364 419 40,000  Level Minneapolis Center
08:32PM 42.4856 -94.5481 289° West 373 429 40,000  Level Minneapolis Center
08:33PM 42.5375 -94.6714 300° West 371 427 40,000  Level Minneapolis Center
08:34PM 42.5989 -94.7892 305° West 383 441 40,000  Level Minneapolis Center
08:35PM 42.6669 -94.9031 309° West 387 445 40,000  Level Minneapolis Center
08:36PM 42.7506 -95.0019 319° Northwest 402 463 40,000  Level Minneapolis Center
08:37PM 42.8467 -95.0883 327° Northwest 415 478 40,000  Level Minneapolis Center
08:38PM 42.9353 -95.1872 321° Northwest 416 479 40,000  Level Minneapolis Center
08:39PM 42.9914 -95.3172 301° West 396 456 40,000  Level Minneapolis Center
08:40PM 43.0586 -95.4800 300° West 407 468 40,000  Level Minneapolis Center
08:41PM 43.1169 -95.6139 301° West 410 472 40,000  Level Minneapolis Center
08:42PM 43.1731 -95.7514 299° West 412 474 40,000  Level Minneapolis Center
08:43PM 43.1911 -95.9050 279° West 403 464 40,000  Level Minneapolis Center
08:44PM 43.2097 -96.0569 280° West 403 464 40,000  Level Minneapolis Center
08:45PM 43.2294 -96.2108 280° West 407 468 40,000  Level Minneapolis Center
08:46PM 43.2483 -96.3653 280° West 410 472 40,000  Level Minneapolis Center
08:47PM 43.2661 -96.5164 279° West 404 465 40,000  Level Minneapolis Center
08:48PM 43.2878 -96.6942 280° West 396 456 40,000  Level Minneapolis Center
08:49PM 43.3047 -96.8447 279° West 398 458 40,000  Level Minneapolis Center
08:50PM 43.3219 -96.9961 279° West 400 460 40,000  Level Minneapolis Center
08:51PM 43.3389 -97.1475 279° West 401 461 40,000  Level Minneapolis Center
08:52PM 43.3558 -97.2967 279° West 397 457 40,000  Level Minneapolis Center
08:53PM 43.3722 -97.4497 278° West 403 464 40,000  Level Minneapolis Center
08:54PM 43.3903 -97.6031 279° West 405 466 40,000  Level Minneapolis Center
08:55PM 43.4089 -97.7864 278° West 405 466 40,000 -540 Level Minneapolis Center
08:56PM 43.4258 -97.9394 279° West 405 466 39,000 -960 Descending Minneapolis Center
08:57PM 43.4406 -98.0967 277° West 412 474 38,100 -540 Descending Minneapolis Center
08:58PM 43.4586 -98.2594 279° West 426 490 38,000 -60 Descending Minneapolis Center
08:59PM 43.4747 -98.4208 278° West 428 493 38,000 -180 Level Minneapolis Center
09:00PM 43.4914 -98.5839 278° West 430 495 37,700 -720 Descending Minneapolis Center
09:02PM 43.5108 -98.7800 278° West 441 507 36,600 -840 Descending Minneapolis Center
09:03PM 43.5278 -98.9528 278° West 451 519 36,000 -300 Descending Minneapolis Center
09:04PM 43.5442 -99.1242 278° West 450 518 36,000  Level Minneapolis Center
09:05PM 43.5600 -99.2919 277° West 443 510 36,000  Level Minneapolis Center
09:06PM 43.5753 -99.4617 277° West 445 512 36,000  Level Minneapolis Center
09:07PM 43.5939 -99.6633 277° West 443 510 36,000  Level Minneapolis Center
09:08PM 43.6089 -99.8303 277° West 439 505 36,000  Level Minneapolis Center
09:09PM 43.6239 -99.9997 277° West 442 509 36,000  Level Minneapolis Center
09:10PM 43.6381 -100.1681 277° West 443 510 36,000  Level Minneapolis Center
09:11PM 43.6528 -100.3375 277° West 442 509 36,000  Level Minneapolis Center
09:11PM 43.6583 -100.4047 277° West 445 512 36,000  Level Denver Center
09:12PM 43.6756 -100.6139 277° West 452 520 36,000  Level Denver Center
09:13PM 43.6806 -100.6836 276° West 451 519 36,000  Level Minneapolis Center
09:14PM 43.6956 -100.8589 277° West 456 525 36,000  Level Minneapolis Center
09:15PM 43.7114 -101.0717 276° West 460 529 36,000  Level Minneapolis Center
09:16PM 43.7256 -101.2475 276° West 461 531 36,000  Level Minneapolis Center
09:17PM 43.7386 -101.4211 276° West 456 525 36,000  Level Minneapolis Center
09:17PM 43.7428 -101.4892 275° West 454 522 36,000  Level Denver Center
09:18PM 43.7553 -101.6650 276° West 457 526 36,000  Level Denver Center
09:20PM 43.7692 -101.8406 276° West 458 527 36,000  Level Denver Center
09:21PM 43.7806 -102.0164 275° West 458 527 36,000  Level Denver Center
09:22PM 43.7947 -102.2214 276° West 456 525 36,000  Level Denver Center
09:23PM 43.8056 -102.3886 275° West 456 525 36,000  Level Denver Center
09:24PM 43.8194 -102.5858 276° West 460 529 36,000  Level Denver Center
09:25PM 43.8303 -102.7542 275° West 460 529 36,000  Level Denver Center
09:26PM 43.8406 -102.9211 275° West 458 527 36,000  Level Denver Center
09:27PM 43.8522 -103.1167 275° West 458 527 36,000  Level Denver Center
09:28PM 43.8625 -103.2847 275° West 459 528 36,000  Level Denver Center
09:29PM 43.8719 -103.4772 274° West 453 521 36,000  Level Denver Center
09:30PM 43.8825 -103.6442 275° West 455 524 36,000  Level Denver Center
09:31PM 43.8922 -103.8406 274° West 458 527 36,000  Level Denver Center
09:32PM 43.9017 -104.0083 275° West 458 527 36,000  Level Denver Center
09:33PM 43.9092 -104.1764 274° West 457 526 36,000  Level Denver Center
09:34PM 43.9192 -104.3714 274° West 455 524 36,000  Level Denver Center
09:35PM 43.9275 -104.5367 274° West 452 520 36,000  Level Denver Center
09:36PM 43.9364 -104.7303 274° West 453 521 36,000  Level Denver Center
09:37PM 43.9436 -104.8939 274° West 448 516 36,000  Level Denver Center
09:38PM 43.9514 -105.0861 273° West 448 516 36,000  Level Denver Center
09:39PM 43.9581 -105.2514 273° West 449 517 36,000  Level Denver Center
09:40PM 43.9644 -105.4147 273° West 445 512 36,000  Level Denver Center
09:41PM 43.9717 -105.6064 273° West 447 514 36,000  Level Denver Center
09:42PM 43.9789 -105.7711 274° West 447 514 36,000  Level Denver Center
09:43PM 43.9844 -105.9644 272° West 450 518 36,000  Level Denver Center
09:44PM 43.9892 -106.1283 272° West 447 514 36,000  Level Denver Center
09:45PM 43.9953 -106.2928 273° West 445 512 36,000  Level Denver Center
09:46PM 43.9872 -106.4800 267° West 439 505 36,000  Level Denver Center
09:47PM 43.9453 -106.6322 249° West 442 509 36,000  Level Denver Center
09:48PM 43.8958 -106.8083 249° West 440 506 36,000  Level Denver Center
09:49PM 43.8658 -106.9108 248° West 443 510 36,000  Level Salt Lake Center
09:50PM 43.8222 -107.0597 248° West 439 505 36,000  Level Salt Lake Center
09:51PM 43.7800 -107.2114 249° West 438 504 36,000  Level Salt Lake Center
09:52PM 43.7289 -107.3889 248° West 441 507 36,000  Level Salt Lake Center
09:53PM 43.6867 -107.5394 249° West 440 506 36,000  Level Salt Lake Center
09:54PM 43.6425 -107.6906 248° West 443 510 36,000  Level Salt Lake Center
09:55PM 43.5908 -107.8664 248° West 442 509 36,000  Level Salt Lake Center
09:56PM 43.5467 -108.0178 248° West 443 510 36,000  Level Salt Lake Center
09:57PM 43.5019 -108.1692 248° West 445 512 36,000  Level Salt Lake Center
09:58PM 43.4494 -108.3453 248° West 445 512 36,000  Level Salt Lake Center
09:59PM 43.4081 -108.4989 250° West 447 514 36,000  Level Salt Lake Center
10:00PM 43.3569 -108.6789 249° West 453 521 36,000  Level Salt Lake Center
10:01PM 43.3131 -108.8325 249° West 451 519 36,000  Level Salt Lake Center
10:02PM 43.2683 -108.9856 248° West 452 520 36,000  Level Salt Lake Center
10:03PM 43.2167 -109.1661 249° West 454 522 36,000  Level Salt Lake Center
10:04PM 43.1719 -109.3189 248° West 452 520 36,000  Level Salt Lake Center
10:05PM 43.1267 -109.4725 248° West 453 521 36,000  Level Salt Lake Center
10:06PM 43.0739 -109.6519 248° West 456 525 36,000  Level Salt Lake Center
10:07PM 43.0292 -109.8044 248° West 452 520 36,000  Level Salt Lake Center
10:08PM 42.9772 -109.9764 248° West 452 520 36,000  Level Salt Lake Center
10:09PM 42.9314 -110.1300 248° West 454 522 36,000  Level Salt Lake Center
10:10PM 42.8831 -110.2903 248° West 456 525 36,000  Level Salt Lake Center
10:11PM 42.8292 -110.4678 248° West 455 524 36,000  Level Salt Lake Center
10:12PM 42.7842 -110.6150 247° West 454 522 36,000  Level Salt Lake Center
10:13PM 42.7292 -110.7925 247° West 455 524 36,000  Level Salt Lake Center
10:14PM 42.6808 -110.9469 247° West 460 529 36,000  Level Salt Lake Center
10:15PM 42.6261 -111.1222 247° West 463 533 36,000  Level Salt Lake Center
10:16PM 42.5758 -111.2808 247° West 461 531 36,000  Level Salt Lake Center
10:17PM 42.5258 -111.4417 247° West 464 534 36,000  Level Salt Lake Center
10:18PM 42.4744 -111.6019 247° West 466 536 36,000  Level Salt Lake Center
10:19PM 42.4233 -111.7606 246° West 464 534 36,000  Level Salt Lake Center
10:20PM 42.3714 -111.9194 246° West 463 533 36,000  Level Salt Lake Center
10:22PM 42.3189 -112.0822 246° West 471 542 36,000  Level Salt Lake Center
10:23PM 42.2678 -112.2389 246° West 463 533 36,000  Level Salt Lake Center
10:24PM 42.2072 -112.4272 247° West 460 529 36,000  Level Salt Lake Center
10:25PM 42.1547 -112.5847 246° West 464 534 36,000  Level Salt Lake Center
10:26PM 42.1003 -112.7411 245° Southwest 465 535 36,000  Level Salt Lake Center
10:27PM 42.0472 -112.8978 246° West 464 534 36,000  Level Salt Lake Center
10:28PM 41.9933 -113.0575 246° West 471 542 36,000  Level Salt Lake Center
10:29PM 41.9364 -113.2181 245° Southwest 477 549 36,000  Level Salt Lake Center
10:30PM 41.8825 -113.3772 246° West 474 545 36,000  Level Salt Lake Center
10:31PM 41.8139 -113.5686 244° Southwest 477 549 36,000  Level Salt Lake Center
10:32PM 41.7578 -113.7297 245° Southwest 479 551 36,000  Level Salt Lake Center
10:33PM 41.7014 -113.8894 245° Southwest 478 550 36,000  Level Salt Lake Center
10:34PM 41.6444 -114.0492 245° Southwest 478 550 36,000  Level Salt Lake Center
10:35PM 41.5886 -114.2086 245° Southwest 478 550 36,000  Level Salt Lake Center
10:36PM 41.5314 -114.3672 244° Southwest 477 549 36,000  Level Salt Lake Center
10:37PM 41.4731 -114.5267 244° Southwest 479 551 36,000  Level Salt Lake Center
10:38PM 41.4147 -114.6878 244° Southwest 483 556 36,000  Level Salt Lake Center
10:39PM 41.3461 -114.8761 244° Southwest 490 564 36,000  Level Salt Lake Center
10:40PM 41.2883 -115.0308 244° Southwest 488 562 36,000  Level Salt Lake Center
10:41PM 41.2225 -115.2111 244° Southwest 486 559 36,000  Level Salt Lake Center
10:42PM 41.1642 -115.3650 243° Southwest 486 559 36,000  Level Salt Lake Center
10:43PM 41.1075 -115.5178 244° Southwest 483 556 36,000  Level Salt Lake Center
10:44PM 41.0417 -115.6958 244° Southwest 482 555 36,000  Level Salt Lake Center
10:45PM 40.9833 -115.8472 243° Southwest 482 555 36,100  Climbing Salt Lake Center
10:46PM 40.9269 -115.9978 244° Southwest 479 551 36,000 -60 Descending Salt Lake Center
10:47PM 40.8597 -116.1742 243° Southwest 480 552 36,000  Level Salt Lake Center
10:48PM 40.7997 -116.3275 243° Southwest 489 563 36,000  Level Salt Lake Center
10:49PM 40.7311 -116.5058 243° Southwest 489 563 36,000  Level Salt Lake Center
10:50PM 40.6733 -116.6575 243° Southwest 486 559 36,000  Level Salt Lake Center
10:51PM 40.6197 -116.8367 249° West 473 544 36,000  Level Salt Lake Center
10:52PM 40.5797 -116.9878 251° West 465 535 36,000  Level Salt Lake Center
10:53PM 40.5367 -117.1389 249° West 465 535 36,000  Level Salt Lake Center
10:54PM 40.4867 -117.3192 250° West 473 544 36,000  Level Salt Lake Center
10:55PM 40.4428 -117.4736 250° West 473 544 36,000  Level Salt Lake Center
10:56PM 40.3925 -117.6519 250° West 469 540 36,000  Level Salt Lake Center
10:57PM 40.3719 -117.7281 251° West 466 536 36,000  Level Oakland Center
10:57PM 40.3492 -117.8044 249° West 466 536 36,000  Level Salt Lake Center
10:58PM 40.3206 -117.9056 250° West 467 537 36,000  Level Oakland Center
10:59PM 40.2719 -118.0772 250° West 462 532 36,000 -780 Level Oakland Center
11:00PM 40.2261 -118.2328 249° West 460 529 34,500 -2,280 Descending Oakland Center
11:01PM 40.1822 -118.3875 250° West 456 525 31,400 -3,060 Descending Oakland Center
11:02PM 40.1339 -118.5456 248° West 466 536 28,300 -2,580 Descending Oakland Center
11:03PM 40.0469 -118.6761 229° Southwest 480 552 26,200 -1,980 Descending Oakland Center
11:04PM 39.9531 -118.7906 223° Southwest 469 540 24,300 -2,100 Descending Oakland Center
11:05PM 39.8617 -118.9017 223° Southwest 454 522 21,900 -2,340 Descending Oakland Center
11:06PM 39.7728 -119.0097 223° Southwest 443 510 19,600 -2,160 Descending Oakland Center
11:07PM 39.6872 -119.1139 223° Southwest 428 493 17,600 -2,160 Descending Oakland Center
11:08PM 39.5842 -119.2344 222° Southwest 420 483 15,300 -1,680 Descending Oakland Center
11:09PM 39.4981 -119.3314 221° Southwest 413 475 14,300 -1,140 Descending Oakland Center
11:10PM 39.4167 -119.4272 222° Southwest 403 464 13,100 -1,020 Descending Oakland Center
11:11PM 39.3408 -119.5169 222° Southwest 385 443 12,300 -720 Descending Oakland Center
11:12PM 39.2847 -119.6050 231° Southwest 351 404 11,700 -1,380 Descending Oakland Center
11:13PM 39.2786 -119.7083 266° West 309 356 9,500 -1,440 Descending Oakland Center
11:14PM 39.3186 -119.7839 304° West 281 323 8,800 -720 Descending Oakland Center